NCAR-RAP Real-Time Weather Data

Output produced by METARs form (20 February 2019  18:36 UTC)
found at http://weather.rap.ucar.edu/surface/
 
ROAH 201800Z 23009KT 190V250 9999 FEW008 SCT015 BKN030 23/22 Q1018 RMK 2ST008 3CU015 6CU030 A3008
ROAH 201730Z 22011KT 9999 -SHRA FEW008 SCT010 BKN017 23/21 Q1018 RMK 1ST008 3CU010 5CU017 A3008
ROAH 201710Z 21012KT 9999 SHRA SCT010 BKN018 23/21 Q1019 RMK 4CU010 6CU018 A3009
ROAH 201700Z 21011KT 9999 -SHRA SCT010 BKN018 23/21 Q1019 RMK 3CU010 5CU018 A3009
ROAH 201630Z 15005KT 9999 VCSH FEW010 BKN050 23/21 Q1019 RMK 1CU010 6SC050 A3010
ROAH 201600Z 14005KT 9999 VCSH FEW010 SCT050 22/21 Q1019 RMK 1CU010 3SC050 A3010
ROAH 201530Z 14005KT 9999 FEW010 BKN050 22/21 Q1019 RMK 1CU010 6SC050 A3010
ROAH 201500Z 16004KT 9999 FEW013 SCT060 22/20 Q1019 RMK 1CU013 4SC060 A3012
ROAH 201430Z 13005KT 9999 FEW013 22/20 Q1019 RMK 1CU013 A3011
ROAH 201400Z 13005KT 9999 VCSH FEW013 BKN070 22/20 Q1020 RMK 1CU013 7AC070 A3012
ROAH 201330Z 06003KT 040V110 9999 VCSH FEW013 SCT017 BKN040 22/20 Q1020 RMK 1CU013 4CU017 6SC040 A3013
ROAH 201300Z 09003KT 030V120 9999 VCSH FEW015 SCT110 22/20 Q1020 RMK 1CU015 4AC110 A3013
ROAH 201230Z 13005KT 9999 FEW015 SCT070 22/20 Q1020 RMK 1CU015 3AC070 A3012
ROAH 201200Z VRB02KT 9999 VCSH FEW015 SCT020 BKN100 22/20 Q1020 RMK 1CU015 3CU020 6AC100 A3014
ROAH 201130Z 07003KT 010V170 9999 -SHRA FEW015 SCT030 BKN060 22/20 Q1020 RMK 1CU015 4CU030 6SC060 A3013
ROAH 201100Z VRB02KT 9999 -SHRA FEW010 SCT025 BKN060 22/20 Q1020 RMK 1CU010 3CU025 6SC060 A3013
ROAH 201030Z VRB02KT 8000 SHRA FEW015 SCT030 BKN050 22/20 Q1020 RMK 1CU015 4CU030 6SC050 A3013
ROAH 201000Z 22003KT 190V320 6000 SHRA FEW009 SCT020 BKN030 22/20 Q1020 RMK 2CU009 4CU020 6CU030 A3013
ROAH 200930Z 17003KT 130V200 9999 VCSH FEW010 SCT020 BKN080 23/20 Q1019 RMK 1CU010 4CU020 6AC080 A3011
ROAH 200900Z 15003KT 110V210 9999 VCSH FEW006 SCT015 BKN045 22/20 Q1019 RMK 1ST006 3CU015 5SC045 A3011
ROAH 200830Z 14005KT 9999 VCSH FEW015 SCT035 BKN070 23/21 Q1019 RMK 2CU015 3CU035 5AC070 A3011
ROAH 200818Z 14005KT 110V190 9999 VCSH FEW015 SCT035 BKN070 22/21 Q1019 RMK 2CU015 3CU035 5AC070 A3011
ROAH 200800Z 17006KT 130V200 6000 SHRA FEW015 SCT025 BKN035 22/21 Q1019 RMK 2CU015 4CU025 6CU035 A3011
ROAH 200747Z 20011KT 4000 SHRA SCT010 BKN015 22/20 Q1019 RMK 3CU010 6CU015 A3011
ROAH 200740Z 20011KT 8000 SHRA SCT010 BKN015 23/20 Q1019 RMK 4CU010 6CU015 A3011 4000S
ROAH 200730Z VRB05KT 9999 -SHRA SCT011 BKN015 23/20 Q1019 RMK 3CU011 6CU015 A3010
ROAH 200700Z VRB02KT 9999 VCSH FEW010 BKN015 BKN020 24/20 Q1019 RMK 1CU010 5CU015 6CU020 A3011
ROAH 200630Z VRB02KT 9999 -SHRA FEW010 SCT015 BKN025 24/20 Q1019 RMK 1CU010 3CU015 6CU025 A3012
ROAH 200600Z VRB03KT 9999 -SHRA FEW010 BKN015 BKN033 24/20 Q1020 RMK 1CU010 5CU015 6CU033 A3012
ROAH 200530Z 11004KT 070V150 9999 FEW010 BKN015 23/20 Q1020 RMK 1CU010 6CU015 A3013
ROAH 200500Z VRB04KT 9999 FEW010 BKN015 BKN035 24/20 Q1020 RMK 1CU010 5CU015 6SC035 A3013
ROAH 200430Z VRB03KT 9999 FEW010 BKN015 BKN040 24/20 Q1020 RMK 1CU010 5CU015 6SC040 A3014
ROAH 200400Z 08004KT 040V140 9999 FEW010 BKN015 BKN060 24/20 Q1021 RMK 1CU010 5CU015 6SC060 A3016
ROAH 200330Z 21006KT 170V250 9999 FEW010 SCT015 BKN060 24/20 Q1021 RMK 1CU010 4CU015 6SC060 A3017
ROAH 200300Z 14004KT 060V230 9999 FEW010 BKN015 23/20 Q1022 RMK 1CU010 6CU015 A3018
ROAH 200230Z 22003KT 160V280 9999 FEW010 BKN015 23/20 Q1022 RMK 1CU010 6CU015 A3018
ROAH 200200Z 10004KT 040V180 9999 FEW015 SCT020 BKN050 24/21 Q1022 RMK 2CU015 3CU020 5SC050 A3019
ROAH 200130Z 06003KT 010V120 9999 SCT012 BKN060 23/20 Q1022 RMK 3CU012 6SC060 A3019
ROAH 200100Z 08004KT 020V120 9999 FEW012 BKN060 23/20 Q1022 RMK 1CU012 5SC060 A3018
ROAH 200030Z 04004KT 340V080 9999 FEW010 BKN015 22/20 Q1022 RMK 2CU010 6CU015 A3018
ROAH 200000Z 03004KT 360V090 9999 FEW012 BKN020 22/19 Q1022 RMK 1CU012 5CU020 A3018
ROAH 192330Z 04003KT 9999 FEW012 BKN030 22/19 Q1021 RMK 1CU012 5CU030 A3017
ROAH 192300Z VRB01KT 9999 FEW012 BKN018 21/19 Q1021 RMK 1CU012 5CU018 A3017
ROAH 192230Z 01001KT 9999 BKN012 21/19 Q1021 RMK 5CU012 A3016
ROAH 192200Z 03003KT 9999 SCT012 BKN110 21/19 Q1020 RMK 3CU012 5AC110 A3015
ROAH 192130Z VRB02KT 9999 FEW012 BKN110 20/19 Q1020 RMK 1CU012 5AC110 A3014
ROAH 192100Z 11003KT 9999 FEW012 BKN120 21/19 Q1020 RMK 1CU012 6AC120 A3012
ROAH 192030Z VRB02KT 9999 FEW012 BKN100 21/19 Q1020 RMK 1CU012 6AC100 A3013
ROAH 192000Z 05004KT 020V080 9999 BKN012 21/19 Q1020 RMK 6CU012 A3013
ROAH 191930Z 04005KT 010V080 9999 BKN012 BKN080 21/19 Q1020 RMK 5CU012 7AC080 A3013
ROAH 191900Z 03005KT 9999 VCSH BKN015 BKN080 21/19 Q1020 RMK 5CU015 7AC080 A3013
ROAH 191830Z 05003KT 9999 -RA FEW010 BKN080 21/19 Q1020 RMK 2CU010 7AS080 A3013
ROAH 191800Z 05002KT 9999 -RA FEW010 BKN080 21/19 Q1020 RMK 2CU010 7AS080 A3014
ROAH 191730Z 03004KT 9999 -RA FEW010 SCT040 BKN080 21/19 Q1021 RMK 1CU010 3SC040 7AS080 A3015
ROAH 191700Z 01005KT 9999 -RA FEW010 SCT040 BKN080 21/19 Q1021 RMK 1CU010 3SC040 7AS080 A3016
ROAH 191630Z 02005KT 9999 -RA FEW015 SCT040 BKN090 21/19 Q1021 RMK 1CU015 3SC040 7AS090 A3016
ROAH 191600Z 05005KT 360V070 9999 -RA FEW015 SCT035 BKN090 22/19 Q1021 RMK 1CU015 3SC035 7AS090 A3017
ROAH 191530Z 03005KT 9999 -RA FEW015 SCT035 BKN090 22/19 Q1021 RMK 1CU015 3SC035 7AS090 A3016
ROAH 191500Z 04004KT 9999 FEW015 BKN090 22/19 Q1021 RMK 1CU015 7AC090 A3017
ROAH 191430Z 03005KT 9999 FEW015 BKN090 22/19 Q1021 RMK 1CU015 7AC090 A3016
ROAH 191400Z 02007KT 9999 FEW015 SCT020 BKN100 22/19 Q1021 RMK 1CU015 3CU020 7AC100 A3016
ROAH 191330Z 01007KT 9999 -SHRA FEW010 SCT020 BKN100 22/19 Q1021 RMK 1CU010 3CU020 7AC100 A3016
ROAH 191300Z 36008KT 9999 FEW010 SCT020 BKN100 22/19 Q1021 RMK 1CU010 3CU020 7AC100 A3016
ROAH 191230Z 36008KT 9999 FEW012 SCT040 BKN100 22/19 Q1021 RMK 1CU012 3SC040 7AC100 A3016
ROAH 191200Z 02007KT 9999 FEW012 BKN100 22/19 Q1020 RMK 2CU012 7AC100 A3014
ROAH 191130Z 02007KT 9999 FEW010 SCT035 BKN100 22/20 Q1020 RMK 1CU010 3CU035 7AC100 A3013
ROAH 191100Z 35009KT 9999 FEW010 SCT032 BKN100 22/20 Q1020 RMK 1CU010 4CU032 7AC100 A3013
ROAH 191030Z 34008KT 9999 FEW010 BKN020 BKN100 23/20 Q1020 RMK 2CU010 5CU020 7AC100 A3012
ROAH 191000Z 26007KT 230V320 9999 -SHRA FEW010 BKN020 23/20 Q1019 RMK 2CU010 6CU020 A3012
ROAH 190930Z 25006KT 230V300 9999 VCSH FEW010 BKN020 23/21 Q1019 RMK 2CU010 6CU020 A3010
ROAH 190900Z 26007KT 240V310 9999 VCSH FEW010 BKN020 23/20 Q1019 RMK 1CU010 6CU020 A3009
ROAH 190830Z 25007KT 220V340 9999 FEW010 BKN090 23/20 Q1018 RMK 1CU010 7AC090 A3008
ROAH 190800Z 25007KT 200V300 9999 FEW010 BKN090 23/21 Q1018 RMK 1CU010 7AC090 A3007
ROAH 190730Z 25005KT 190V310 9999 FEW008 BKN090 22/20 Q1018 RMK 1ST008 7AC090 A3007
ROAH 190700Z 23004KT 200V290 9999 VCSH FEW004 SCT008 BKN080 22/21 Q1018 RMK 2ST004 3ST008 6AC080 A3007
ROAH 190646Z 27003KT 200V350 9999 -SHRA FEW005 SCT010 BKN070 22/21 Q1018 RMK 2ST005 4CU010 6AC070 A3006
ROAH 190630Z 23003KT 180V300 7000 SHRA SCT005 BKN010 21/20 Q1018 RMK 4ST005 6CU010 A3007
ROAH 190609Z 30003KT 230V330 6000 +SHRA SCT004 BKN010 BKN050 21/20 Q1018 RMK 3ST004 5CU010 7SC050 A3007
ROAH 190600Z 28005KT 240V320 4000 +SHRA FEW005 SCT010 BKN020 21/20 Q1018 RMK 2ST005 4CU010 7CU020 A3006 MOD TURB OBS AT 0547Z 20NM ON FNA RWY36 2000FT B767
ROAH 190539Z 32007KT 6000 +SHRA FEW003 SCT010 BKN025 FEW035CB 21/20 Q1018 RMK 1ST003 4CU010 6CU025 1CB035 A3007 CB 10KM E MOV E
ROAH 190530Z 33009KT 2000 R36/1500VP1800N +SHRA FEW003 SCT020 BKN030 FEW035CB 21/20 Q1018 RMK 1ST003 4CU020 6CU030 2CB035 A3007 CB 8KM S MOV E
ROAH 190506Z 27013KT 4000 SHRA FEW010 SCT030 FEW035CB BKN040 21/20 Q1018 RMK 1CU010 4CU030 1CB035 6SC040 A3008 CB 13KM SW MOV E
ROAH 190500Z 26014KT 6000 SHRA FEW010 SCT030 FEW035CB BKN040 21/19 Q1018 RMK 1CU010 4CU030 1CB035 6SC040 A3008 CB 15KM SE MOV E
ROAH 190447Z 27013KT 6000 +SHRA FEW010 SCT030 FEW035CB BKN045 22/20 Q1018 RMK 1CU010 4CU030 2CB035 6SC045 A3007 CB 10KM SE MOV E
ROAH 190439Z 26010KT 4000 +SHRA FEW010 SCT020 BKN030 FEW035CB 22/20 Q1018 RMK 2CU010 4CU020 6CU030 2CB035 A3008 CB 6KM SE MOV E
ROAH 190430Z 28014KT 1000 R36/0650VP1800U +SHRA FEW005 SCT010 BKN020 FEW030CB 21/19 Q1018
ROAH 190418Z VRB08KT 0600 R36/1300VP1800D +SHRA FEW005 SCT010 BKN020 FEW030CB 21/19 Q1018 RMK 2ST005 4CU010 6CU020 2CB030 A3008 CB OHD MOV E RI++
ROAH 190406Z 27013G23KT 170V310 1000 R18/0700VP1800D +SHRA SCT010 BKN020 SCT030CB 21/19 Q1019 RMK 3CU010 6CU020 3CB030 A3010 CB OHD MOV E RI++
ROAH 190400Z 23012KT 170V290 3000 +SHRA SCT010 BKN020 SCT030CB 22/19 Q1019 RMK 3CU010 6CU020 3CB030 A3010 CB OHD MOV E RI++
ROAH 190348Z 20017KT 4000 +SHRA FEW015 SCT020 FEW030CB BKN060 25/22 Q1018 RMK 1CU015 3CU020 2CB030 6SC060 A3009 CB 6KM N MOV E
ROAH 190330Z 20020KT 9000 -SHRA FEW015 SCT020 FEW030CB BKN060 25/22 Q1018 RMK 1CU015 3CU020 1CB030 6SC060 A3008 CB 12KM NW-N MOV E
ROAH 190300Z 19018KT 9999 VCSH FEW018 SCT040 26/21 Q1018 RMK 1CU018 4SC040 A3008
ROAH 190230Z 19018KT 9999 FEW018 26/22 Q1019 RMK 1CU018 A3009
ROAH 190200Z 19020KT 9999 FEW018 26/21 Q1019 RMK 1CU018 A3009
ROAH 190130Z 19020KT 9999 FEW018 SCT060 26/21 Q1019 RMK 1CU018 3SC060 A3010
ROAH 190100Z 19019KT 9999 FEW018 SCT060 26/21 Q1019 RMK 1CU018 3SC060 A3010
ROAH 190030Z 18020KT 9999 FEW018 25/21 Q1018 RMK 1CU018 A3009
ROAH 190000Z 18018KT 9999 FEW020 25/20 Q1018 RMK 1CU020 A3008
ROAH 182330Z 18017KT 9999 FEW020 SCT070 24/21 Q1019 RMK 1CU020 3AC070 A3009
ROAH 182300Z 18018KT 9999 FEW020 SCT070 24/20 Q1019 RMK 1CU020 4AC070 A3009
ROAH 182230Z 18018KT 9999 FEW020 SCT070 23/20 Q1018 RMK 1CU020 3AC070 A3008
ROAH 182200Z 18017KT 9999 FEW020 BKN070 23/20 Q1018 RMK 1CU020 7AC070 A3007
ROAH 182130Z 18018KT 9999 FEW020 SCT100 23/20 Q1017 RMK 1CU020 4AC100 A3006
ROAH 182100Z 17017KT 9999 VCSH FEW020 SCT060 BKN100 23/20 Q1017 RMK 1CU020 3SC060 7AC100 A3005
ROAH 182030Z 17016KT 9999 FEW020 SCT060 BKN100 23/20 Q1017 RMK 1CU020 3SC060 5AC100 A3004
ROAH 182000Z 17017KT 9999 FEW020 SCT/// 23/20 Q1017 RMK 1CU020 A3004
ROAH 181930Z 17015KT 9999 FEW020 BKN/// 23/20 Q1017
ROAH 181900Z 17014KT 9999 VCSH FEW020 BKN/// 22/20 Q1017
ROAH 181830Z 17014KT 9999 FEW020 BKN/// 23/19 Q1017
ROAH 181800Z 17015KT 9999 FEW020 BKN050 23/19 Q1017 RMK 1CU020 5SC050 A3006
ROAH 181730Z 16015KT 9999 FEW020 SCT060 BKN090 23/19 Q1018 RMK 1CU020 3SC060 5AC090 A3006
ROAH 181700Z 17015KT 9999 FEW015 SCT060 BKN090 23/19 Q1018 RMK 1CU015 3SC060 7AC090 A3007
ROAH 181630Z 17015KT 9999 FEW015 SCT030 BKN090 23/19 Q1018 RMK 1CU015 3CU030 7AC090 A3008
ROAH 181600Z 16015KT 9999 FEW015 SCT030 BKN100 23/20 Q1018 RMK 1CU015 3CU030 7AC100 A3008
ROAH 181530Z 16015KT 9999 -SHRA FEW010 SCT025 BKN040 23/20 Q1018 RMK 1CU010 4CU025 6SC040 A3009
ROAH 181500Z 16012KT 9999 VCSH FEW015 SCT040 BKN100 23/20 Q1019 RMK 1CU015 4SC040 5AC100 A3010
ROAH 181430Z 15014KT 9999 -SHRA SCT015 BKN100 22/20 Q1019 RMK 3CU015 7AC100 A3010
ROAH 181400Z 15011KT 9999 -SHRA FEW010 SCT060 BKN100 22/20 Q1019 RMK 2CU010 4SC060 7AC100 A3010
ROAH 181330Z 14016KT 9999 -SHRA SCT010 SCT020 BKN060 22/20 Q1019 RMK 3CU010 4CU020 7SC060 A3010
ROAH 181300Z 14013KT 9999 -SHRA FEW010 BKN020 BKN060 22/19 Q1019 RMK 2CU010 5CU020 7SC060 A3010
ROAH 181230Z 14013KT 9999 FEW010 SCT025 BKN040 22/19 Q1019 RMK 1CU010 4CU025 7SC040 A3010
ROAH 181200Z 12011KT 9999 VCSH FEW007 SCT025 BKN050 22/20 Q1019 RMK 1ST007 3CU025 7SC050 A3010
ROAH 181130Z 13012KT 9999 -SHRA FEW007 SCT015 BKN030 22/19 Q1019 RMK 1ST007 3CU015 7CU030 A3010
ROAH 181100Z 12015KT 080V150 9999 -SHRA FEW007 SCT030 BKN045 21/19 Q1018 RMK 1ST007 3CU030 7SC045 A3008
ROAH 181030Z 12014KT 9999 VCSH FEW005 SCT010 BKN050 21/19 Q1018 RMK 1ST005 3CU010 7SC050 A3007
ROAH 181019Z 13013KT 5000 -SHRA FEW007 SCT010 BKN020 21/19 Q1018 RMK 1ST007 3CU010 7CU020 A3008
ROAH 181012Z 12013KT 2000 SHRA FEW005 SCT015 BKN025 21/19 Q1018 RMK 1ST005 3CU015 7CU025 A3008
ROAH 181000Z 12013KT 080V140 3000 -SHRA FEW006 SCT015 BKN025 21/19 Q1018 RMK 1ST006 3CU015 7CU025 A3008
ROAH 180950Z 13013KT 4000 -SHRA FEW010 BKN020 21/18 Q1018 RMK 1CU010 7CU020 A3008
ROAH 180930Z 12012KT 9999 -SHRA FEW020 BKN025 22/18 Q1018 RMK 1CU020 7CU025 A3008
ROAH 180900Z 12012KT 100V160 9999 VCSH BKN025 BKN060 22/17 Q1018 RMK 5CU025 7SC060 A3008
ROAH 180830Z 12014KT 9999 VCSH SCT025 BKN060 22/17 Q1018 RMK 3CU025 7SC060 A3007
ROAH 180800Z 12013KT 9999 VCSH FEW020 BKN040 BKN070 23/18 Q1018 RMK 2CU020 6SC040 7AC070 A3007
ROAH 180730Z 13012KT 9999 FEW023 BKN030 23/16 Q1018 RMK 2CU023 6CU030 A3006
ROAH 180700Z 12015KT 9999 FEW023 BKN030 22/16 Q1018 RMK 2CU023 6CU030 A3007